Time;durP1;ratioP1;P1;durP2;ratioP2;P2;SDS_P1;SDS_P2;PMS_P1;PMS_P2;Temp;Humidity;BMP_temperature;BMP_pressure;BME280_temperature;BME280_humidity;BME280_pressure;Samples;Min_cycle;Max_cycle;Signal;HPM_P1;HPM_P2
2022/01/30 00:00:47;;;;;;;260.83;243.98;;;6.20;99.90;;;;;;5074181;28;20550;-62
2022/01/30 00:03:15;;;;;;;278.73;262.27;;;6.20;99.90;;;;;;5073873;28;20082;-62
2022/01/30 00:05:41;;;;;;;343.65;322.00;;;6.10;99.90;;;;;;5073472;28;20489;-61
2022/01/30 00:08:07;;;;;;;324.33;306.60;;;6.10;99.90;;;;;;5072550;28;20057;-62
2022/01/30 00:10:38;;;;;;;456.83;416.02;;;6.10;99.90;;;;;;5073446;28;20463;-63
2022/01/30 00:13:07;;;;;;;307.85;287.60;;;6.00;99.90;;;;;;5073275;28;20036;-62
2022/01/30 00:15:40;;;;;;;357.63;324.58;;;6.00;99.90;;;;;;5073927;28;20052;-62
2022/01/30 00:18:17;;;;;;;220.23;205.35;;;6.10;99.90;;;;;;5063737;28;20056;-62
2022/01/30 00:20:47;;;;;;;177.77;167.15;;;6.30;99.90;;;;;;5053155;28;20056;-62
2022/01/30 00:23:21;;;;;;;287.15;267.00;;;6.30;99.90;;;;;;5053911;28;20166;-62
2022/01/30 00:25:52;;;;;;;234.48;218.18;;;6.30;99.90;;;;;;5062294;28;20056;-62
2022/01/30 00:28:21;;;;;;;142.43;133.48;;;6.30;99.90;;;;;;5073386;28;20474;-62
2022/01/30 00:30:47;;;;;;;293.35;272.08;;;6.30;99.90;;;;;;5060025;28;20175;-63
2022/01/30 00:33:13;;;;;;;149.82;140.50;;;6.40;99.90;;;;;;5052606;28;20052;-62
2022/01/30 00:35:39;;;;;;;197.52;182.18;;;6.30;99.90;;;;;;5071531;28;20038;-62
2022/01/30 00:38:16;;;;;;;114.50;107.72;;;6.30;99.90;;;;;;5073446;28;20067;-62
2022/01/30 00:40:43;;;;;;;218.70;201.43;;;6.30;99.90;;;;;;5072220;28;20045;-62
2022/01/30 00:43:09;;;;;;;218.02;201.25;;;6.20;99.90;;;;;;5069369;28;20146;-62
2022/01/30 00:45:35;;;;;;;173.88;164.25;;;6.20;99.90;;;;;;5071785;28;20231;-62
2022/01/30 00:48:02;;;;;;;209.00;196.77;;;6.20;99.90;;;;;;5070311;28;20131;-62
2022/01/30 00:50:29;;;;;;;523.90;470.17;;;6.10;99.90;;;;;;5071405;28;20114;-63
2022/01/30 00:52:55;;;;;;;280.08;261.25;;;6.00;99.90;;;;;;5066670;28;20045;-62
2022/01/30 00:55:25;;;;;;;297.00;277.30;;;6.10;99.90;;;;;;5072253;28;20044;-63
2022/01/30 00:57:52;;;;;;;251.68;238.25;;;6.00;99.90;;;;;;5071889;28;20094;-62
2022/01/30 01:00:17;;;;;;;288.08;269.83;;;6.00;99.90;;;;;;5071119;28;20056;-62
2022/01/30 01:02:44;;;;;;;245.75;231.60;;;6.00;99.90;;;;;;5071036;28;20033;-62
2022/01/30 01:05:10;;;;;;;241.75;228.40;;;6.00;99.90;;;;;;5071709;28;20402;-62
2022/01/30 01:07:41;;;;;;;228.07;215.50;;;6.00;99.90;;;;;;5065441;28;20053;-62
2022/01/30 01:10:15;;;;;;;223.40;210.95;;;5.90;99.90;;;;;;5063052;28;20045;-62
2022/01/30 01:12:57;;;;;;;197.93;187.23;;;5.90;99.90;;;;;;5071529;28;20041;-62
2022/01/30 01:23:42;;;;;;;153.88;144.63;;;6.00;99.90;;;;;;5072204;28;20045;-62
2022/01/30 01:26:08;;;;;;;122.05;114.68;;;6.10;99.90;;;;;;5071303;28;20111;-61
2022/01/30 01:28:36;;;;;;;179.52;167.02;;;6.10;99.90;;;;;;5072179;28;20040;-62
2022/01/30 01:31:02;;;;;;;252.32;237.57;;;6.20;99.90;;;;;;5055931;28;20552;-62
2022/01/30 01:33:44;;;;;;;323.52;303.75;;;6.20;99.90;;;;;;5051315;28;20107;-63
2022/01/30 01:36:10;;;;;;;351.63;325.52;;;6.10;99.90;;;;;;5050764;28;20033;-63
2022/01/30 01:38:36;;;;;;;437.85;401.20;;;5.90;99.90;;;;;;5052670;28;20128;-63
2022/01/30 01:41:02;;;;;;;681.42;624.75;;;5.60;99.90;;;;;;5052205;28;20079;-63
2022/01/30 01:43:27;;;;;;;550.95;509.75;;;5.40;99.90;;;;;;5033877;28;20099;-63
2022/01/30 01:45:56;;;;;;;811.60;742.25;;;5.20;99.90;;;;;;5064866;28;20041;-63
2022/01/30 01:48:22;;;;;;;546.65;505.65;;;5.20;99.90;;;;;;5072465;28;20044;-62
2022/01/30 01:50:54;;;;;;;366.67;343.45;;;5.10;99.90;;;;;;5068336;28;20029;-61
2022/01/30 01:53:23;;;;;;;406.10;382.10;;;5.10;99.90;;;;;;5050134;28;20046;-61
2022/01/30 01:55:50;;;;;;;317.77;292.15;;;5.10;99.90;;;;;;5050968;28;20045;-63
2022/01/30 01:58:24;;;;;;;492.05;446.58;;;5.20;99.90;;;;;;5050814;28;20128;-62
2022/01/30 02:01:03;;;;;;;344.88;316.40;;;5.30;99.90;;;;;;5055418;28;20506;-62
2022/01/30 02:03:29;;;;;;;280.38;260.38;;;5.50;99.90;;;;;;5068918;28;20091;-61
2022/01/30 02:05:59;;;;;;;309.73;283.95;;;5.50;99.90;;;;;;5074600;28;20040;-62
2022/01/30 02:08:33;;;;;;;237.38;220.23;;;5.60;99.90;;;;;;5062469;28;20056;-61
2022/01/30 02:11:05;;;;;;;207.70;195.18;;;5.50;99.90;;;;;;5055455;28;20048;-62
2022/01/30 02:24:47;;;;;;;256.88;239.30;;;5.50;99.90;;;;;;5074580;28;20055;-62
2022/01/30 02:27:15;;;;;;;355.40;322.83;;;5.60;99.90;;;;;;5074188;28;20052;-61
2022/01/30 02:29:41;;;;;;;260.10;241.73;;;5.70;99.90;;;;;;5070588;28;20041;-61
2022/01/30 02:32:07;;;;;;;191.50;179.82;;;5.80;99.90;;;;;;5053787;28;20542;-61
2022/01/30 02:34:33;;;;;;;219.57;205.65;;;5.90;99.90;;;;;;5071475;28;20045;-63
2022/01/30 02:37:00;;;;;;;202.35;189.45;;;6.00;99.90;;;;;;5055909;28;20045;-61
2022/01/30 02:39:26;;;;;;;259.40;242.40;;;6.00;99.90;;;;;;5053841;28;20589;-61
2022/01/30 02:41:53;;;;;;;166.32;154.88;;;6.00;99.90;;;;;;5075153;28;20076;-61
2022/01/30 02:44:24;;;;;;;185.75;173.90;;;6.00;99.90;;;;;;5070826;28;20517;-61
2022/01/30 02:46:54;;;;;;;181.18;170.35;;;6.00;99.90;;;;;;5053011;28;20108;-61
2022/01/30 02:51:53;;;;;;;164.30;154.52;;;5.90;99.90;;;;;;5051237;28;20045;-61
2022/01/30 02:54:20;;;;;;;182.38;171.02;;;6.00;99.90;;;;;;5033164;28;20046;-61
2022/01/30 02:56:46;;;;;;;180.40;167.90;;;6.00;99.90;;;;;;5064480;28;20044;-61
2022/01/30 02:59:13;;;;;;;197.70;185.52;;;6.00;99.90;;;;;;5074253;28;20067;-61
2022/01/30 03:01:39;;;;;;;238.52;223.02;;;6.00;99.90;;;;;;5073114;28;20037;-61
2022/01/30 03:04:05;;;;;;;311.23;284.33;;;6.00;99.90;;;;;;5075019;28;20055;-62
2022/01/30 03:06:31;;;;;;;169.00;158.10;;;6.10;99.90;;;;;;5075211;28;20055;-61
2022/01/30 03:08:57;;;;;;;274.80;253.10;;;6.10;99.90;;;;;;5054803;28;20141;-62
2022/01/30 03:11:24;;;;;;;203.10;190.30;;;6.20;99.90;;;;;;5052715;28;20406;-62
2022/01/30 03:13:50;;;;;;;249.77;233.02;;;6.30;99.90;;;;;;5056768;28;20124;-60
2022/01/30 03:16:16;;;;;;;358.23;326.83;;;6.40;99.90;;;;;;5052531;28;20140;-62
2022/01/30 03:18:43;;;;;;;359.08;331.52;;;6.30;99.90;;;;;;5069924;28;20446;-62
2022/01/30 03:21:09;;;;;;;183.02;168.52;;;6.30;99.90;;;;;;5053154;28;20475;-62
2022/01/30 03:23:38;;;;;;;251.57;230.70;;;6.30;99.90;;;;;;5086039;28;20502;-62
2022/01/30 03:26:05;;;;;;;114.15;106.03;;;6.30;99.90;;;;;;5074541;28;20048;-62
2022/01/30 03:28:45;;;;;;;365.02;333.50;;;6.30;99.90;;;;;;5072722;28;20565;-62
2022/01/30 03:31:21;;;;;;;217.88;202.00;;;6.30;99.90;;;;;;5054958;28;20487;-62
2022/01/30 03:33:48;;;;;;;104.70;97.10;;;6.30;99.90;;;;;;5053656;28;20394;-62
2022/01/30 03:36:15;;;;;;;228.95;212.38;;;6.30;99.90;;;;;;5052802;28;20045;-61
2022/01/30 03:38:42;;;;;;;126.63;118.40;;;6.30;99.90;;;;;;5053219;28;20045;-61
2022/01/30 03:41:08;;;;;;;86.32;79.15;;;6.30;99.90;;;;;;5070140;28;20368;-61
2022/01/30 03:43:37;;;;;;;181.40;166.65;;;6.30;99.90;;;;;;5057663;28;20479;-62
2022/01/30 03:46:04;;;;;;;172.55;159.48;;;6.30;99.90;;;;;;5052909;28;20168;-62
2022/01/30 03:48:30;;;;;;;108.57;100.32;;;6.40;99.90;;;;;;5056386;28;20040;-61
2022/01/30 03:51:07;;;;;;;132.45;122.80;;;6.40;99.90;;;;;;5073439;28;20092;-61
2022/01/30 03:53:33;;;;;;;211.68;195.50;;;6.40;99.90;;;;;;5050524;28;20084;-61
2022/01/30 03:56:00;;;;;;;251.02;232.98;;;6.40;99.90;;;;;;5033384;28;20495;-61
2022/01/30 03:58:30;;;;;;;220.65;203.40;;;6.40;99.90;;;;;;5057932;28;20052;-61
2022/01/30 04:00:57;;;;;;;133.27;124.07;;;6.40;99.90;;;;;;5072812;28;20044;-61
2022/01/30 04:03:23;;;;;;;139.35;128.70;;;6.50;99.90;;;;;;5072753;28;20079;-61
2022/01/30 04:05:49;;;;;;;187.15;170.75;;;6.50;99.90;;;;;;5071911;28;20174;-61
2022/01/30 04:08:16;;;;;;;132.77;122.40;;;6.50;99.90;;;;;;5069030;28;20068;-61
2022/01/30 04:11:02;;;;;;;201.98;188.40;;;6.50;99.90;;;;;;5053280;28;20109;-60
2022/01/30 04:13:34;;;;;;;206.90;192.32;;;6.50;99.90;;;;;;5052825;28;20036;-61
2022/01/30 04:16:14;;;;;;;198.23;182.45;;;6.50;99.90;;;;;;5065259;28;20062;-61
2022/01/30 04:18:48;;;;;;;177.57;166.05;;;6.50;99.90;;;;;;5057875;28;20053;-61
2022/01/30 04:21:24;;;;;;;234.25;217.50;;;6.50;99.90;;;;;;5052679;28;20056;-62
2022/01/30 04:24:18;;;;;;;147.00;136.80;;;6.50;99.90;;;;;;5058544;28;20048;-61
2022/01/30 04:26:45;;;;;;;294.38;274.85;;;6.50;99.90;;;;;;5073043;28;20056;-61
2022/01/30 04:29:19;;;;;;;253.70;235.75;;;6.50;99.90;;;;;;5070714;28;20070;-61
2022/01/30 04:32:04;;;;;;;140.70;131.50;;;6.50;99.90;;;;;;5052881;28;20052;-61
2022/01/30 04:34:41;;;;;;;268.15;250.38;;;6.50;99.90;;;;;;5072417;28;20040;-62
2022/01/30 04:37:22;;;;;;;393.20;360.27;;;6.30;99.90;;;;;;5073266;28;20127;-62
2022/01/30 04:40:20;;;;;;;417.20;382.92;;;6.40;99.90;;;;;;5071647;28;20048;-61
2022/01/30 05:01:00;;;;;;;317.02;297.17;;;6.20;99.90;;;;;;5065257;28;20058;-61
2022/01/30 05:03:59;;;;;;;226.85;214.45;;;6.20;99.90;;;;;;5071979;28;20048;-62
2022/01/30 05:06:54;;;;;;;200.88;188.73;;;6.20;99.90;;;;;;5071456;28;20052;-62
2022/01/30 05:09:39;;;;;;;196.73;185.48;;;6.30;99.90;;;;;;5064246;28;20403;-61
2022/01/30 05:12:21;;;;;;;133.35;124.50;;;6.30;99.90;;;;;;5071529;28;20569;-62
2022/01/30 05:15:13;;;;;;;151.07;141.50;;;6.30;99.90;;;;;;5071705;28;20052;-63
2022/01/30 05:17:49;;;;;;;198.38;185.68;;;6.20;99.90;;;;;;5063991;28;20392;-62
2022/01/30 05:20:34;;;;;;;162.18;151.38;;;6.20;99.90;;;;;;5051446;28;20053;-63
2022/01/30 05:23:11;;;;;;;179.50;167.93;;;6.20;99.90;;;;;;5050999;28;20040;-62
2022/01/30 05:25:48;;;;;;;119.13;111.00;;;6.20;99.90;;;;;;5053966;28;20102;-62
2022/01/30 05:28:16;;;;;;;140.43;130.90;;;6.20;99.90;;;;;;5070751;28;20406;-62
2022/01/30 05:31:00;;;;;;;117.72;108.75;;;6.20;99.90;;;;;;5055714;28;20090;-63
2022/01/30 05:33:54;;;;;;;98.45;90.55;;;6.20;99.90;;;;;;5051082;28;20084;-61
2022/01/30 05:36:45;;;;;;;132.65;123.35;;;6.20;99.90;;;;;;5030438;28;20045;-61
2022/01/30 05:39:41;;;;;;;124.90;116.40;;;6.20;99.90;;;;;;5032808;28;20052;-62
2022/01/30 05:42:37;;;;;;;188.07;174.20;;;6.30;99.90;;;;;;5037949;28;20084;-62
2022/01/30 05:45:21;;;;;;;141.98;132.25;;;6.30;99.90;;;;;;5069617;28;20056;-61
2022/01/30 05:48:15;;;;;;;258.48;237.75;;;6.30;99.90;;;;;;5071565;28;20044;-62
2022/01/30 05:50:53;;;;;;;121.13;111.68;;;6.20;99.90;;;;;;5070490;28;20056;-63
2022/01/30 05:53:35;;;;;;;111.28;101.47;;;6.20;99.90;;;;;;5051899;28;20402;-62
2022/01/30 05:56:09;;;;;;;168.45;155.88;;;6.00;99.90;;;;;;5050562;28;20063;-62
2022/01/30 05:58:35;;;;;;;132.18;123.50;;;5.90;99.90;;;;;;5050878;28;20056;-62
2022/01/30 06:01:14;;;;;;;162.98;152.38;;;5.90;99.90;;;;;;5054751;28;20485;-61
2022/01/30 06:03:40;;;;;;;179.75;166.60;;;5.90;99.90;;;;;;5070725;28;20048;-62
2022/01/30 06:06:08;;;;;;;286.50;262.88;;;5.90;99.90;;;;;;5070771;28;20044;-62
2022/01/30 06:11:06;;;;;;;322.17;298.77;;;5.60;99.90;;;;;;5045369;28;20131;-62
2022/01/30 06:13:32;;;;;;;284.10;267.05;;;5.50;99.90;;;;;;5072068;28;20044;-63
2022/01/30 06:15:58;;;;;;;277.65;260.17;;;5.40;99.90;;;;;;5071446;28;20040;-61
2022/01/30 06:18:25;;;;;;;262.73;245.18;;;5.40;99.90;;;;;;5058417;28;20087;-61
2022/01/30 06:21:17;;;;;;;305.92;287.98;;;5.40;99.90;;;;;;5031935;28;20136;-61
2022/01/30 06:24:12;;;;;;;380.70;356.08;;;5.40;99.90;;;;;;5031441;28;20469;-62
2022/01/30 06:26:47;;;;;;;375.75;352.25;;;5.40;99.90;;;;;;5032442;28;20460;-62
2022/01/30 06:29:31;;;;;;;338.77;319.35;;;5.50;99.90;;;;;;5064274;28;20045;-63
2022/01/30 06:32:23;;;;;;;315.63;296.67;;;5.60;99.90;;;;;;5051464;28;20056;-62
2022/01/30 06:35:08;;;;;;;329.77;309.98;;;5.40;99.90;;;;;;5052117;28;20084;-62
2022/01/30 06:38:02;;;;;;;345.75;323.38;;;5.20;99.90;;;;;;5048696;28;20452;-62
2022/01/30 06:40:27;;;;;;;255.80;238.85;;;5.20;99.90;;;;;;5071426;28;20505;-62
2022/01/30 06:43:12;;;;;;;181.85;170.30;;;5.20;99.90;;;;;;5060423;28;20126;-61
2022/01/30 06:46:11;;;;;;;189.45;177.70;;;5.30;99.90;;;;;;5061341;28;20523;-62
2022/01/30 06:48:55;;;;;;;165.27;155.27;;;5.40;99.90;;;;;;5075591;28;20060;-62
2022/01/30 06:51:40;;;;;;;135.77;126.05;;;5.40;99.90;;;;;;5071869;28;20088;-61
2022/01/30 06:54:24;;;;;;;191.40;179.98;;;5.50;99.90;;;;;;5058324;28;20495;-62
2022/01/30 06:57:08;;;;;;;164.60;155.75;;;5.50;99.90;;;;;;5075478;28;20101;-62
2022/01/30 06:59:53;;;;;;;188.45;176.68;;;5.60;99.90;;;;;;5074397;28;20123;-62
2022/01/30 07:02:57;;;;;;;288.25;269.85;;;5.60;99.90;;;;;;5074614;28;20052;-61
2022/01/30 07:05:45;;;;;;;274.63;258.58;;;5.60;99.90;;;;;;5073889;28;20045;-61
2022/01/30 07:08:18;;;;;;;288.05;270.52;;;5.70;99.90;;;;;;5060421;28;20053;-62
2022/01/30 07:10:45;;;;;;;206.20;194.13;;;5.80;99.90;;;;;;5055307;28;20444;-62
2022/01/30 07:13:12;;;;;;;192.57;181.25;;;5.80;99.90;;;;;;5067312;28;20158;-62
2022/01/30 07:15:41;;;;;;;193.63;181.63;;;5.80;99.90;;;;;;5074413;28;20110;-63
2022/01/30 07:18:07;;;;;;;195.05;183.18;;;5.80;99.90;;;;;;5065616;28;20049;-62
2022/01/30 07:20:33;;;;;;;208.60;196.82;;;5.80;99.90;;;;;;5054540;28;20124;-63
2022/01/30 07:22:59;;;;;;;189.02;177.77;;;5.80;99.90;;;;;;5074948;28;20056;-62
2022/01/30 07:25:25;;;;;;;166.77;156.25;;;5.80;99.90;;;;;;5074892;28;20049;-62
2022/01/30 07:27:51;;;;;;;295.58;275.20;;;5.70;99.90;;;;;;5074020;28;20068;-63
2022/01/30 07:30:17;;;;;;;160.02;149.93;;;5.80;99.90;;;;;;5073037;28;20460;-63
2022/01/30 07:32:42;;;;;;;144.93;136.32;;;5.80;99.90;;;;;;5075099;28;20044;-63
2022/01/30 07:35:09;;;;;;;139.60;131.18;;;5.80;99.90;;;;;;5073677;28;20052;-62
2022/01/30 07:37:35;;;;;;;173.48;161.68;;;5.80;99.90;;;;;;5074618;28;20102;-61
2022/01/30 07:40:03;;;;;;;141.85;132.18;;;5.80;99.90;;;;;;5058472;28;20092;-62
2022/01/30 07:42:29;;;;;;;153.52;143.32;;;5.80;99.90;;;;;;5053710;28;20057;-62
2022/01/30 07:44:57;;;;;;;167.57;157.30;;;5.90;99.90;;;;;;5053416;28;20081;-62
2022/01/30 07:47:22;;;;;;;175.50;164.32;;;5.90;99.90;;;;;;5057431;28;20044;-63
2022/01/30 07:49:51;;;;;;;148.63;138.45;;;5.90;99.90;;;;;;5073400;28;20052;-62
2022/01/30 07:52:19;;;;;;;166.13;154.80;;;5.90;99.90;;;;;;5065760;28;20107;-62
2022/01/30 07:54:45;;;;;;;179.48;167.88;;;5.90;99.90;;;;;;5054229;28;20041;-62
2022/01/30 07:57:11;;;;;;;171.43;160.23;;;5.90;99.90;;;;;;5052697;28;20098;-63
2022/01/30 07:59:36;;;;;;;127.45;118.10;;;5.90;99.90;;;;;;5054327;28;20049;-62
2022/01/30 08:02:03;;;;;;;160.70;149.27;;;6.00;99.90;;;;;;5054281;28;20487;-63
2022/01/30 08:04:29;;;;;;;129.10;119.68;;;5.90;99.90;;;;;;5053179;28;20119;-63
2022/01/30 08:06:55;;;;;;;125.75;116.55;;;5.90;99.90;;;;;;5070930;28;20551;-63
2022/01/30 08:09:21;;;;;;;144.10;133.50;;;5.90;99.90;;;;;;5053835;28;20049;-62
2022/01/30 08:11:47;;;;;;;170.30;157.48;;;6.00;99.90;;;;;;5052914;28;20526;-63
2022/01/30 08:14:13;;;;;;;136.95;127.38;;;6.00;99.90;;;;;;5059640;28;20040;-63
2022/01/30 08:16:39;;;;;;;137.77;128.98;;;6.10;99.90;;;;;;5059192;28;20145;-63
2022/01/30 08:19:05;;;;;;;152.18;142.23;;;6.10;99.90;;;;;;5053244;28;20044;-62
2022/01/30 08:21:31;;;;;;;116.63;107.25;;;6.10;99.90;;;;;;5053453;28;20057;-62
2022/01/30 08:23:57;;;;;;;134.50;124.68;;;6.10;99.90;;;;;;5054888;28;20029;-63
2022/01/30 08:26:23;;;;;;;197.30;182.82;;;6.10;99.90;;;;;;5053533;28;20052;-63
2022/01/30 08:28:49;;;;;;;162.05;150.45;;;6.20;99.90;;;;;;5053228;28;20120;-62
2022/01/30 08:31:15;;;;;;;121.00;111.95;;;6.10;99.90;;;;;;5049808;28;20052;-63
2022/01/30 08:33:40;;;;;;;124.38;115.57;;;6.10;99.90;;;;;;5055062;28;20044;-63
2022/01/30 08:36:06;;;;;;;221.85;205.52;;;6.10;99.90;;;;;;5053409;28;20049;-63
2022/01/30 08:38:32;;;;;;;179.85;169.55;;;6.10;99.90;;;;;;5052270;28;20395;-62
2022/01/30 08:40:58;;;;;;;116.70;108.53;;;6.10;99.90;;;;;;5060711;28;20041;-63
2022/01/30 08:43:24;;;;;;;177.57;166.52;;;6.10;99.90;;;;;;5060091;28;20455;-63
2022/01/30 08:45:50;;;;;;;150.32;141.30;;;6.00;99.90;;;;;;5052700;28;20053;-62
2022/01/30 08:48:17;;;;;;;162.73;152.40;;;6.00;99.90;;;;;;5053163;28;20084;-62
2022/01/30 08:50:44;;;;;;;151.70;142.15;;;6.00;99.90;;;;;;5067527;28;20098;-62
2022/01/30 08:53:10;;;;;;;168.82;158.93;;;6.10;99.90;;;;;;5056131;28;20051;-62
2022/01/30 08:55:36;;;;;;;176.43;165.70;;;6.10;99.90;;;;;;5053355;28;20115;-63
2022/01/30 08:58:07;;;;;;;188.10;176.98;;;6.10;99.90;;;;;;5054749;28;20388;-62
2022/01/30 09:00:35;;;;;;;171.10;160.75;;;6.20;99.90;;;;;;5072339;28;20048;-63
2022/01/30 09:03:03;;;;;;;197.35;184.23;;;6.30;99.90;;;;;;5053448;28;20048;-62
2022/01/30 09:05:30;;;;;;;250.38;235.93;;;6.30;99.90;;;;;;5052512;28;20075;-62
2022/01/30 09:07:57;;;;;;;152.25;142.50;;;6.30;99.90;;;;;;5052372;28;20092;-62
2022/01/30 09:10:23;;;;;;;138.70;128.80;;;6.30;99.90;;;;;;5052543;28;20053;-62
2022/01/30 09:12:49;;;;;;;159.55;149.43;;;6.30;99.90;;;;;;5050906;28;20067;-61
2022/01/30 09:15:16;;;;;;;168.75;157.07;;;6.30;99.90;;;;;;5051680;28;20048;-63
2022/01/30 09:17:43;;;;;;;330.38;309.83;;;6.40;99.90;;;;;;5050882;28;20045;-62
2022/01/30 09:20:10;;;;;;;216.70;203.55;;;6.50;99.90;;;;;;5051588;28;20060;-63
2022/01/30 09:22:36;;;;;;;232.95;217.52;;;6.50;99.90;;;;;;5052987;28;20120;-63
2022/01/30 09:25:03;;;;;;;140.88;131.18;;;6.60;99.90;;;;;;5058114;28;20041;-63
2022/01/30 09:27:29;;;;;;;167.25;154.30;;;6.70;99.90;;;;;;5071912;28;20044;-63
2022/01/30 09:29:55;;;;;;;121.03;112.05;;;6.70;99.90;;;;;;5066292;28;20052;-63
2022/01/30 09:32:20;;;;;;;219.07;205.20;;;6.60;99.90;;;;;;5052628;28;20049;-62
2022/01/30 09:34:46;;;;;;;131.63;122.82;;;6.60;99.90;;;;;;5064259;28;20097;-62
2022/01/30 09:37:12;;;;;;;175.88;164.00;;;6.60;99.90;;;;;;5072999;28;20049;-62
2022/01/30 09:39:39;;;;;;;169.82;158.40;;;6.60;99.90;;;;;;5072677;28;20096;-63
2022/01/30 09:42:06;;;;;;;185.65;172.50;;;6.50;99.90;;;;;;5069524;28;20041;-64
2022/01/30 09:44:39;;;;;;;135.77;126.15;;;6.50;99.90;;;;;;5072605;28;20372;-63
2022/01/30 09:47:11;;;;;;;254.85;238.48;;;6.60;99.90;;;;;;5072737;28;20080;-62
2022/01/30 09:49:42;;;;;;;300.48;280.55;;;6.70;99.90;;;;;;5057047;28;20037;-63
2022/01/30 09:52:09;;;;;;;177.30;165.38;;;6.80;99.90;;;;;;5055122;28;20057;-63
2022/01/30 09:54:35;;;;;;;113.95;104.75;;;6.70;99.90;;;;;;5052776;28;20037;-62
2022/01/30 09:57:01;;;;;;;129.02;118.35;;;6.70;99.90;;;;;;5051676;28;20057;-62
2022/01/30 09:59:27;;;;;;;109.40;101.85;;;6.70;99.90;;;;;;5052073;28;20041;-62
2022/01/30 10:01:53;;;;;;;209.90;195.75;;;6.70;99.90;;;;;;5068268;28;20048;-62
2022/01/30 10:04:19;;;;;;;197.00;184.73;;;6.80;99.90;;;;;;5071536;28;20050;-63
2022/01/30 10:06:55;;;;;;;198.15;185.25;;;6.90;99.90;;;;;;5072131;28;20125;-63
2022/01/30 10:09:28;;;;;;;133.88;124.75;;;6.90;99.90;;;;;;5043737;28;20045;-63
2022/01/30 10:12:12;;;;;;;155.25;144.93;;;7.10;99.90;;;;;;5072040;28;20049;-63
2022/01/30 10:15:03;;;;;;;176.15;163.88;;;7.20;99.90;;;;;;5072629;28;20053;-62
2022/01/30 10:17:41;;;;;;;177.40;165.05;;;7.30;99.90;;;;;;5060450;28;20124;-62
2022/01/30 10:20:11;;;;;;;188.15;175.55;;;7.40;99.90;;;;;;5044094;28;20118;-62
2022/01/30 10:22:50;;;;;;;122.32;114.13;;;7.60;99.90;;;;;;5054538;28;20102;-61
2022/01/30 10:25:19;;;;;;;142.52;132.40;;;7.70;99.90;;;;;;5058937;28;20494;-63
2022/01/30 10:27:45;;;;;;;151.25;141.30;;;7.80;99.90;;;;;;5065465;28;20110;-61
2022/01/30 10:30:11;;;;;;;129.77;120.13;;;8.00;99.90;;;;;;5055851;28;20048;-62
2022/01/30 10:32:37;;;;;;;118.30;110.47;;;8.00;99.90;;;;;;5054881;28;20114;-63
2022/01/30 10:35:07;;;;;;;192.98;178.07;;;8.00;99.90;;;;;;5067588;28;20090;-62
2022/01/30 10:37:36;;;;;;;139.25;128.95;;;7.90;99.90;;;;;;5073762;28;20120;-63
2022/01/30 10:40:16;;;;;;;143.82;134.32;;;7.80;99.90;;;;;;5075366;28;20053;-62
2022/01/30 10:42:44;;;;;;;139.95;131.00;;;7.50;99.90;;;;;;5070579;28;20414;-63
2022/01/30 10:45:25;;;;;;;131.88;121.03;;;7.30;99.90;;;;;;5073732;28;20052;-62
2022/01/30 10:48:06;;;;;;;130.32;121.97;;;7.60;99.90;;;;;;5075277;28;20080;-63
2022/01/30 10:50:32;;;;;;;114.68;106.57;;;7.80;99.90;;;;;;5075636;28;20459;-62
2022/01/30 10:53:02;;;;;;;133.43;124.68;;;7.90;99.90;;;;;;5045938;28;20049;-62
2022/01/30 10:55:35;;;;;;;141.25;132.40;;;8.10;99.90;;;;;;5055311;28;20400;-62
2022/01/30 10:58:01;;;;;;;126.43;118.07;;;8.20;99.60;;;;;;5055264;28;20045;-63
2022/01/30 11:00:39;;;;;;;93.07;85.68;;;8.10;98.80;;;;;;5057300;28;20047;-62
2022/01/30 11:03:05;;;;;;;162.52;151.98;;;8.00;99.10;;;;;;5063302;28;20402;-61
2022/01/30 11:05:33;;;;;;;92.93;86.88;;;7.90;97.50;;;;;;5054502;28;20049;-62
2022/01/30 11:07:59;;;;;;;120.78;112.82;;;7.80;99.20;;;;;;5054183;28;20068;-61
2022/01/30 11:10:26;;;;;;;106.55;100.03;;;7.80;99.90;;;;;;5054293;28;20053;-62
2022/01/30 11:13:07;;;;;;;116.63;109.20;;;7.70;99.20;;;;;;5043595;28;20155;-62
2022/01/30 11:15:39;;;;;;;108.70;101.30;;;7.70;99.80;;;;;;5035132;28;20054;-61
2022/01/30 11:18:05;;;;;;;139.95;131.23;;;7.70;99.90;;;;;;5040668;28;20080;-63
2022/01/30 11:20:33;;;;;;;100.38;92.00;;;7.70;99.10;;;;;;5051685;28;20040;-62
2022/01/30 11:23:01;;;;;;;145.15;136.52;;;7.70;99.90;;;;;;5074920;28;20040;-63
2022/01/30 11:25:33;;;;;;;124.60;116.00;;;7.70;99.90;;;;;;5074501;28;20120;-63
2022/01/30 11:28:03;;;;;;;165.32;154.27;;;7.70;99.90;;;;;;5059791;28;20049;-63
2022/01/30 11:30:32;;;;;;;113.57;105.70;;;7.70;99.90;;;;;;5061234;28;20537;-63
2022/01/30 11:32:59;;;;;;;131.20;122.50;;;7.60;99.90;;;;;;5054005;28;20371;-62
2022/01/30 11:35:26;;;;;;;175.13;163.90;;;7.60;99.90;;;;;;5050390;28;20574;-63
2022/01/30 11:37:52;;;;;;;179.13;167.75;;;7.60;99.90;;;;;;5059890;28;20088;-62
2022/01/30 11:40:20;;;;;;;116.13;108.43;;;7.70;99.90;;;;;;5066314;28;20060;-63
2022/01/30 11:42:49;;;;;;;151.30;140.70;;;7.60;99.90;;;;;;5039933;28;20049;-63
2022/01/30 11:45:20;;;;;;;120.75;112.38;;;7.60;99.90;;;;;;5054434;28;20051;-62
2022/01/30 11:47:55;;;;;;;125.18;117.10;;;7.60;99.90;;;;;;5068053;28;20048;-63
2022/01/30 11:50:25;;;;;;;109.60;101.13;;;7.70;99.90;;;;;;5074506;28;20052;-62
2022/01/30 11:52:53;;;;;;;112.57;104.00;;;7.60;99.90;;;;;;5074617;28;20063;-62
2022/01/30 11:55:43;;;;;;;130.38;122.82;;;7.50;99.90;;;;;;5072716;28;20093;-62
2022/01/30 11:58:29;;;;;;;99.50;92.95;;;7.50;99.90;;;;;;5072973;28;20037;-61
2022/01/30 12:00:57;;;;;;;93.43;86.85;;;7.50;99.90;;;;;;5074153;28;20372;-62
2022/01/30 12:03:26;;;;;;;116.55;108.47;;;7.40;99.90;;;;;;5073631;28;20041;-62
2022/01/30 12:05:54;;;;;;;80.53;74.05;;;7.30;99.90;;;;;;5073937;28;20077;-61
2022/01/30 12:08:44;;;;;;;82.40;75.60;;;7.30;99.90;;;;;;5060628;28;20160;-63
2022/01/30 12:11:35;;;;;;;86.10;78.43;;;7.20;99.90;;;;;;5054039;28;20067;-63
2022/01/30 12:14:01;;;;;;;129.77;119.95;;;7.00;99.90;;;;;;5065975;28;20048;-63
2022/01/30 12:16:48;;;;;;;97.80;90.28;;;7.00;99.90;;;;;;5072882;28;20048;-62
2022/01/30 12:19:17;;;;;;;94.53;86.30;;;6.80;99.90;;;;;;5054893;28;20376;-61
2022/01/30 12:21:44;;;;;;;146.50;136.63;;;6.80;99.90;;;;;;5056496;28;20072;-62
2022/01/30 12:24:23;;;;;;;137.73;127.65;;;6.70;99.90;;;;;;5072839;28;20049;-62
2022/01/30 12:26:52;;;;;;;93.85;87.07;;;6.70;99.90;;;;;;5073693;28;20390;-62
2022/01/30 12:29:36;;;;;;;107.20;98.85;;;6.90;99.90;;;;;;5071259;28;20048;-61
2022/01/30 12:32:21;;;;;;;138.45;129.98;;;7.00;99.90;;;;;;5067420;28;20119;-61
2022/01/30 12:34:54;;;;;;;153.63;143.50;;;7.10;99.90;;;;;;5071202;28;20391;-62
2022/01/30 12:37:21;;;;;;;149.80;140.80;;;7.10;99.90;;;;;;5053056;28;20103;-63
2022/01/30 12:39:47;;;;;;;109.18;100.60;;;7.30;99.90;;;;;;5058787;28;20047;-62
2022/01/30 12:42:15;;;;;;;126.90;118.95;;;7.40;99.90;;;;;;5055290;28;20041;-63
2022/01/30 12:44:41;;;;;;;132.80;124.25;;;7.40;99.90;;;;;;5051477;28;20491;-60
2022/01/30 12:47:07;;;;;;;91.20;84.00;;;7.30;99.90;;;;;;5052600;28;20037;-61
2022/01/30 12:49:40;;;;;;;93.95;86.18;;;7.20;99.90;;;;;;5052806;28;20052;-61
2022/01/30 12:52:10;;;;;;;115.15;107.07;;;7.10;99.90;;;;;;5050436;28;20095;-62
2022/01/30 12:54:39;;;;;;;129.60;121.47;;;7.00;99.90;;;;;;5051861;28;20052;-62
2022/01/30 12:57:07;;;;;;;219.82;206.48;;;7.00;99.90;;;;;;5055756;28;20045;-62
2022/01/30 12:59:34;;;;;;;134.43;126.10;;;6.90;99.90;;;;;;5072395;28;20049;-62
2022/01/30 13:02:08;;;;;;;98.80;92.03;;;6.90;99.90;;;;;;5072782;28;20036;-62
2022/01/30 13:04:37;;;;;;;99.97;92.80;;;6.90;99.90;;;;;;5073005;28;20403;-62
2022/01/30 13:07:03;;;;;;;126.45;118.93;;;7.00;99.90;;;;;;5069566;28;20067;-63
2022/01/30 13:09:31;;;;;;;97.28;90.78;;;7.10;99.90;;;;;;5048818;28;20048;-62
2022/01/30 13:12:00;;;;;;;129.93;121.82;;;7.00;99.90;;;;;;5052923;28;20182;-62
2022/01/30 13:14:34;;;;;;;99.90;93.00;;;7.00;99.90;;;;;;5052359;28;20041;-62
2022/01/30 13:17:00;;;;;;;142.80;132.93;;;6.90;99.90;;;;;;5048229;28;20045;-62
2022/01/30 13:19:32;;;;;;;199.70;188.88;;;6.80;99.90;;;;;;5060331;28;20074;-62
2022/01/30 13:21:59;;;;;;;167.60;157.45;;;6.80;99.90;;;;;;5072545;28;20048;-62